createdAt,value
2018-12-24T11:47:37.101Z,19.87
2018-12-24T11:50:03.881Z,17.40
2018-12-24T11:52:30.821Z,13.80
2018-12-24T11:54:58.321Z,13.72
2018-12-24T11:57:25.401Z,13.73
2018-12-24T11:59:52.341Z,14.13
2018-12-24T12:02:19.441Z,11.83
2018-12-24T12:04:46.464Z,12.20
2018-12-24T12:07:14.161Z,11.43
2018-12-24T12:09:44.421Z,13.70
2018-12-24T12:12:11.261Z,11.53
2018-12-24T12:14:38.341Z,11.77
2018-12-24T12:17:05.190Z,9.47
2018-12-24T12:19:31.890Z,10.90
2018-12-24T12:21:58.930Z,9.85
2018-12-24T12:24:25.610Z,11.65
2018-12-24T12:26:52.530Z,3.47
2018-12-24T12:29:19.306Z,2.05
2018-12-24T12:31:46.237Z,0.55
2018-12-24T12:34:13.046Z,0.40
2018-12-24T12:36:39.940Z,1.90
2018-12-24T12:39:06.626Z,1.05
2018-12-24T12:41:33.570Z,0.50
2018-12-24T12:44:00.335Z,0.30
2018-12-24T12:46:27.301Z,0.50
2018-12-24T12:48:54.057Z,0.30
2018-12-24T12:51:20.867Z,0.70
2018-12-24T12:53:48.070Z,1.20
2018-12-24T12:56:14.851Z,4.75
2018-12-24T12:58:41.411Z,7.00
2018-12-24T13:01:08.472Z,1.30
2018-12-24T13:03:35.327Z,2.27
2018-12-24T13:06:02.402Z,1.37
2018-12-24T13:08:29.654Z,0.90
2018-12-24T13:10:56.362Z,0.70
2018-12-24T13:13:23.170Z,1.85
2018-12-24T13:15:49.972Z,0.42
2018-12-24T13:18:16.715Z,0.90
2018-12-24T13:20:43.431Z,0.80
2018-12-24T13:23:10.129Z,11.18
2018-12-24T13:25:36.881Z,2.10
2018-12-24T13:28:03.787Z,1.30
2018-12-24T13:30:30.479Z,2.25
2018-12-24T13:32:57.247Z,1.22
2018-12-24T13:35:24.070Z,1.77
2018-12-24T13:37:50.964Z,2.58
2018-12-24T13:40:17.585Z,0.40
2018-12-24T13:42:44.540Z,0.50
2018-12-24T13:45:11.291Z,0.40
2018-12-24T13:47:37.943Z,0.40
2018-12-24T13:50:04.696Z,0.70
2018-12-24T13:52:31.426Z,0.30
2018-12-24T13:54:58.069Z,0.40
2018-12-24T13:57:24.793Z,1.75
2018-12-24T13:59:51.431Z,0.80
2018-12-24T14:02:18.228Z,0.40
2018-12-24T14:04:44.933Z,0.30
2018-12-24T14:07:11.585Z,0.85
2018-12-24T14:09:38.163Z,1.57
2018-12-24T14:12:04.786Z,2.12
2018-12-24T14:14:31.406Z,1.12
2018-12-24T14:16:58.066Z,0.62
2018-12-24T14:19:24.669Z,1.80
2018-12-24T14:21:51.287Z,1.70
2018-12-24T14:24:17.956Z,0.40
2018-12-24T14:26:44.685Z,0.50
2018-12-24T14:29:11.240Z,2.42
2018-12-24T14:31:37.834Z,0.60
2018-12-24T14:34:04.479Z,2.90
2018-12-24T14:36:31.159Z,1.10
2018-12-24T14:38:57.699Z,0.30
2018-12-24T14:41:24.368Z,0.70
2018-12-24T14:43:50.939Z,1.98
2018-12-24T14:46:25.434Z,2.65
2018-12-24T14:48:46.005Z,0.50
2018-12-24T14:51:12.572Z,6.12
2018-12-24T14:53:39.145Z,4.28
2018-12-24T14:56:05.805Z,4.25
2018-12-24T14:58:32.385Z,2.95
2018-12-24T15:00:58.924Z,2.45
2018-12-24T15:03:25.603Z,2.37
2018-12-24T15:05:52.188Z,0.75
2018-12-24T15:08:18.790Z,1.87
2018-12-24T15:10:45.688Z,0.85
2018-12-24T15:13:12.267Z,1.72
2018-12-24T15:15:38.868Z,0.98
2018-12-24T15:18:05.555Z,0.40
2018-12-24T15:20:32.194Z,0.57
2018-12-24T15:22:58.994Z,0.40
2018-12-24T15:25:25.535Z,4.62
2018-12-24T15:27:52.154Z,0.88
2018-12-24T15:30:19.334Z,0.70
2018-12-24T15:32:45.974Z,0.72
2018-12-24T15:35:12.587Z,1.50
2018-12-24T15:37:39.305Z,0.60
2018-12-24T15:40:05.906Z,2.40
2018-12-24T15:42:32.685Z,1.60
2018-12-24T15:44:59.439Z,9.03
2018-12-24T15:47:27.319Z,8.85
2018-12-24T15:49:54.054Z,11.97
2018-12-24T15:52:20.819Z,12.68
2018-12-24T15:54:47.500Z,16.93
2018-12-24T15:57:14.220Z,11.22
2018-12-24T15:59:41.121Z,9.73
2018-12-24T16:02:08.178Z,14.03
2018-12-24T16:04:35.078Z,14.65
2018-12-24T16:07:01.987Z,16.70
2018-12-24T16:09:28.857Z,18.42
2018-12-24T16:11:55.842Z,13.08
2018-12-24T16:14:22.522Z,15.88
2018-12-24T16:16:51.169Z,11.75
2018-12-24T16:19:17.822Z,18.20
2018-12-24T16:21:44.388Z,19.40
2018-12-24T16:24:11.207Z,16.20
2018-12-24T16:26:38.075Z,17.65
2018-12-24T16:29:05.021Z,26.87
2018-12-24T16:31:31.802Z,19.85
2018-12-24T16:33:58.751Z,18.90
2018-12-24T16:36:25.470Z,18.92
2018-12-24T16:38:52.419Z,19.73
2018-12-24T16:41:19.341Z,31.70
2018-12-24T16:43:46.310Z,18.92
2018-12-24T16:46:13.256Z,10.53
2018-12-24T16:48:39.858Z,10.75
2018-12-24T16:51:06.612Z,10.10
2018-12-24T16:53:40.527Z,13.45
2018-12-24T16:56:02.075Z,6.20
2018-12-24T16:58:29.026Z,8.83
2018-12-24T17:00:55.945Z,8.35
2018-12-24T17:03:23.063Z,8.98
2018-12-24T17:05:49.926Z,7.67
2018-12-24T17:08:17.001Z,7.62
2018-12-24T17:10:43.922Z,10.05
2018-12-24T17:13:10.737Z,10.68
2018-12-24T17:15:37.507Z,10.93
2018-12-24T17:18:04.470Z,13.95
2018-12-24T17:20:31.517Z,11.63
2018-12-24T17:22:58.422Z,13.75
2018-12-24T17:25:25.173Z,10.03
2018-12-24T17:27:52.434Z,10.23
2018-12-24T17:30:19.191Z,35.60
2018-12-24T17:32:46.162Z,15.05
2018-12-24T17:35:12.924Z,20.05
2018-12-24T17:37:39.885Z,22.17
2018-12-24T17:40:06.864Z,25.43
2018-12-24T17:42:33.891Z,16.82
2018-12-24T17:45:00.496Z,20.00
2018-12-24T17:47:27.564Z,19.35
2018-12-24T17:49:54.102Z,14.83
2018-12-24T17:52:21.124Z,19.48
2018-12-24T17:54:48.060Z,14.15
2018-12-24T17:57:14.743Z,13.50
2018-12-24T17:59:41.795Z,14.10
2018-12-24T18:02:08.516Z,12.13
2018-12-24T18:04:35.600Z,12.98
2018-12-24T18:07:02.481Z,14.33
2018-12-24T18:09:30.278Z,11.25
2018-12-24T18:11:57.124Z,14.03
2018-12-24T18:14:24.124Z,15.15
2018-12-24T18:16:51.066Z,13.40
2018-12-24T18:19:17.986Z,10.93
2018-12-24T18:21:44.801Z,22.07
2018-12-24T18:24:11.931Z,25.70
2018-12-24T18:26:38.859Z,23.30
2018-12-24T18:29:05.902Z,13.40
2018-12-24T18:31:32.883Z,14.13
2018-12-24T18:34:00.056Z,18.23
2018-12-24T18:36:26.983Z,17.42
2018-12-24T18:38:53.803Z,10.48
2018-12-24T18:41:20.543Z,13.15
2018-12-24T18:43:47.303Z,9.98
2018-12-24T18:46:14.164Z,11.05
2018-12-24T18:48:40.992Z,18.52
2018-12-24T18:51:07.812Z,14.90
2018-12-24T18:53:37.712Z,16.48
2018-12-24T18:56:04.693Z,11.95
2018-12-24T18:58:31.612Z,20.88
2018-12-24T19:00:58.818Z,15.83
2018-12-24T19:03:25.698Z,16.17
2018-12-24T19:05:52.457Z,15.32
2018-12-24T19:08:19.338Z,11.20
2018-12-24T19:10:46.201Z,10.70
2018-12-24T19:13:13.246Z,14.65
2018-12-24T19:15:40.223Z,10.53
2018-12-24T19:18:07.286Z,10.88
2018-12-24T19:20:34.251Z,14.40
2018-12-24T19:23:01.427Z,17.62
2018-12-24T19:25:28.507Z,17.07
2018-12-24T19:27:55.359Z,12.90
2018-12-24T19:30:22.640Z,16.12
2018-12-24T19:32:49.616Z,21.45
2018-12-24T19:35:16.868Z,24.15
2018-12-24T19:37:46.763Z,16.00
2018-12-24T19:40:13.888Z,15.18
2018-12-24T19:42:41.007Z,18.57
2018-12-24T19:45:08.013Z,18.40
2018-12-24T19:47:35.187Z,18.95
2018-12-24T19:50:02.154Z,16.95
2018-12-24T19:52:29.110Z,19.00
2018-12-24T19:54:56.296Z,18.20
2018-12-24T19:57:23.145Z,18.10
2018-12-24T19:59:50.607Z,20.68
2018-12-24T20:02:17.619Z,25.82
2018-12-24T20:04:44.881Z,29.40
2018-12-24T20:07:12.262Z,26.40
2018-12-24T20:09:39.317Z,23.52
2018-12-24T20:12:11.963Z,23.02
2018-12-24T20:14:35.205Z,25.30
2018-12-24T20:17:02.156Z,21.20
2018-12-24T20:19:29.550Z,20.25
2018-12-24T20:21:56.508Z,22.60
2018-12-24T20:24:23.532Z,18.30
2018-12-24T20:26:52.377Z,16.50
2018-12-24T20:29:19.451Z,17.75
2018-12-24T20:31:46.325Z,17.73
2018-12-24T20:34:17.186Z,20.77
2018-12-24T20:36:44.354Z,19.37
2018-12-24T20:39:11.494Z,20.43
2018-12-24T20:41:38.903Z,28.83
2018-12-24T20:44:06.016Z,23.62
2018-12-24T20:46:33.021Z,23.92
2018-12-24T20:49:00.079Z,34.23
2018-12-24T20:51:26.957Z,31.02
2018-12-24T20:53:54.342Z,32.58
2018-12-24T20:56:21.305Z,24.75
2018-12-24T20:58:48.081Z,26.62
2018-12-24T21:01:14.748Z,23.40
2018-12-24T21:03:41.551Z,24.63
2018-12-24T21:06:09.285Z,29.85
2018-12-24T21:08:35.941Z,25.80
2018-12-24T21:11:02.901Z,23.47
2018-12-24T21:13:30.379Z,21.45
2018-12-24T21:15:57.343Z,30.02
2018-12-24T21:18:24.326Z,31.37
2018-12-24T21:20:51.553Z,33.13
2018-12-24T21:23:18.253Z,31.15
2018-12-24T21:25:45.245Z,33.78
2018-12-24T21:28:12.302Z,32.88
2018-12-24T21:30:39.157Z,25.52
2018-12-24T21:33:05.959Z,29.82
2018-12-24T21:35:33.175Z,25.57
2018-12-24T21:38:00.056Z,21.68
2018-12-24T21:40:27.125Z,18.57
2018-12-24T21:42:54.717Z,10.18
2018-12-24T21:45:22.194Z,13.05
2018-12-24T21:47:49.061Z,15.83
2018-12-24T21:50:16.165Z,13.43
2018-12-24T21:52:42.888Z,16.67
2018-12-24T21:55:09.742Z,14.20
2018-12-24T21:57:36.302Z,13.93
2018-12-24T22:00:03.146Z,14.85
2018-12-24T22:02:29.981Z,19.23
2018-12-24T22:04:56.894Z,14.30
2018-12-24T22:07:23.577Z,15.28
2018-12-24T22:09:50.555Z,17.37
2018-12-24T22:12:17.351Z,23.45
2018-12-24T22:14:44.140Z,19.92
2018-12-24T22:17:10.811Z,21.23
2018-12-24T22:19:37.465Z,22.73
2018-12-24T22:22:04.084Z,12.25
2018-12-24T22:24:30.804Z,13.10
2018-12-24T22:26:57.324Z,18.98
2018-12-24T22:29:23.888Z,19.25
2018-12-24T22:31:50.493Z,21.27
2018-12-24T22:34:17.006Z,18.70
2018-12-24T22:36:43.627Z,21.97
2018-12-24T22:39:10.275Z,20.68
2018-12-24T22:41:36.810Z,22.00
2018-12-24T22:44:03.605Z,22.98
2018-12-24T22:46:30.299Z,19.45
2018-12-24T22:48:56.823Z,15.68
2018-12-24T22:51:23.318Z,21.40
2018-12-24T22:53:49.944Z,14.38
2018-12-24T22:56:16.449Z,14.60
2018-12-24T22:58:43.022Z,16.32
2018-12-24T23:01:09.665Z,17.27
2018-12-24T23:03:36.216Z,14.53
2018-12-24T23:06:02.704Z,13.50
2018-12-24T23:08:29.335Z,11.90
2018-12-24T23:10:55.873Z,13.38
2018-12-24T23:13:22.548Z,13.20
2018-12-24T23:15:49.178Z,12.65
2018-12-24T23:18:15.716Z,14.20
2018-12-24T23:20:42.283Z,16.23
2018-12-24T23:23:08.923Z,12.82
2018-12-24T23:25:35.503Z,13.45
2018-12-24T23:28:02.096Z,21.55
2018-12-24T23:30:28.567Z,24.60
2018-12-24T23:32:55.115Z,32.00
2018-12-24T23:35:21.670Z,25.80
2018-12-24T23:37:48.186Z,18.35
2018-12-24T23:40:14.779Z,20.55
2018-12-24T23:42:41.666Z,18.90
2018-12-24T23:45:08.221Z,17.30
2018-12-24T23:47:34.793Z,20.62
2018-12-24T23:50:01.533Z,15.08
2018-12-24T23:52:28.134Z,11.50
2018-12-24T23:54:54.819Z,7.37
2018-12-24T23:57:21.611Z,10.58
2018-12-24T23:59:48.243Z,8.35
